Rosecrans Memorial Airport
KSTJ : now visible

Airfield :











YOU CAN JOIN US ON...

 
LOGIN :

Register | Disclaimer

   EN    FR    IT 

 









Legend :    VFR   Marginal VFR   IFR   Intensive IFR   Very Intensive IFR
Visi :
Ceiling :
>= 8 km
>= 3000ft
5 to 8 km
1000 to 3000 ft
1500m to 5 km
500 to 1000 ft
800 to 1500m
200 to 500 ft
< 800m
< 200 ft
Symbols :   Thunderstorms  Fog  Heavy snow  Heavy precipitations  Wind > 20 kt






- Airport Elevation : 826 ft


KSTJ - Rosecrans Memorial

CURRENT METAR :
  • 181853Z 19021G32KT 10SM BKN045 OVC050 31/21 A2982 RMK AO2 PK WND 19032/1852 SLP088 T03110211

EXPIRED METARs :
  • 181753Z 18022G30KT 10SM SCT046 BKN080 31/21 A2981 RMK AO2 PK WND 18032/1735 SLP084 T03060211 10306 20261 53004
  • 181653Z 19017G32KT 10SM BKN040 30/22 A2981 RMK AO2 PK WND 19033/1627 SLP084 T03000217
  • 181553Z 18023G33KT 10SM OVC032 29/22 A2980 RMK AO2 PK WND 18033/1548 SLP080 T02940217
  • 181510Z 19020G29KT 10SM BKN030 28/22 A2980 RMK AO2 PK WND 19030/1500 T02830217
  • 181453Z 18015G28KT 10SM BKN029 28/22 A2980 RMK AO2 PK WND 17033/1405 SLP081 T02780217 50010
  • 181426Z 18020G31KT 10SM BKN029 BKN034 27/22 A2980 RMK AO2 PK WND 17033/1405 T02720217

TAF KSTJ
Valid from the 18 at 18:00 until the 19 at 18:00 UTC


181720Z 1818/1918 19020G30KT P6SM SCT035 BKN250
FM190200 18017G25KT P6SM BKN250 WS020/19040KT
FM190700 18010KT P6SM VCTS BKN035CB
FM191300 21005KT 4SM SHRA BR BKN030
KZKC FIR / North America



MET'MAP, your aeronautical weather chart ! - Copyright ORBIFLY December 2007 - Disclaimer

ORBIFLY MET'MAP TEAM :

Programming & Development : Alexandra Zaïnal
Original concept : Baudouin d'Aumeries
Technical & hardware support : Manuel Goepfert
Assistance : Marc-Olivier Méhu




SOURCES & CREDITS :

   NOAA       Earth
Advisory